Time;durP1;ratioP1;P1;durP2;ratioP2;P2;SDS_P1;SDS_P2;PMS_P1;PMS_P2;Temp;Humidity;BMP_temperature;BMP_pressure;BME280_temperature;BME280_humidity;BME280_pressure;Samples;Min_cycle;Max_cycle;Signal;HPM_P1;HPM_P2
2021/12/20 00:01:53;;;;;;;12.65;4.45;;;;;;;5.76;100.00;102753.72;5003532;28;20132;-64
2021/12/20 00:04:18;;;;;;;10.68;4.15;;;;;;;5.75;100.00;102742.97;5007519;28;20026;-63
2021/12/20 00:06:43;;;;;;;15.50;4.53;;;;;;;5.73;100.00;102743.16;5007511;28;20026;-64
2021/12/20 00:09:09;;;;;;;13.80;4.30;;;;;;;5.73;100.00;102754.91;5007686;28;20504;-64
2021/12/20 00:11:34;;;;;;;15.73;4.82;;;;;;;5.74;99.89;102753.03;5007407;28;20036;-64
2021/12/20 00:13:59;;;;;;;13.93;4.10;;;;;;;5.72;99.18;102755.88;5007299;28;20052;-63
2021/12/20 00:16:25;;;;;;;15.25;4.00;;;;;;;5.73;99.30;102751.31;5008273;28;20037;-63
2021/12/20 00:18:51;;;;;;;13.02;3.70;;;;;;;5.73;98.74;102740.41;5007635;28;20026;-64
2021/12/20 00:21:16;;;;;;;17.23;3.80;;;;;;;5.71;98.31;102750.59;5007191;28;20030;-63
2021/12/20 00:23:41;;;;;;;12.05;2.90;;;;;;;5.72;98.33;102744.97;5007670;28;20522;-63
2021/12/20 00:26:09;;;;;;;17.10;3.70;;;;;;;5.72;98.77;102744.13;5006989;28;20099;-64
2021/12/20 00:28:34;;;;;;;11.85;3.00;;;;;;;5.74;98.03;102736.69;5014232;28;20119;-64
2021/12/20 00:30:59;;;;;;;16.55;3.47;;;;;;;5.73;97.78;102738.53;5027676;28;20029;-64
2021/12/20 00:33:28;;;;;;;14.50;3.22;;;;;;;5.76;97.66;102747.41;5022429;28;20116;-63
2021/12/20 00:35:53;;;;;;;13.90;3.50;;;;;;;5.73;97.36;102733.09;5020249;28;20025;-64
2021/12/20 00:41:02;;;;;;;13.43;3.33;;;;;;;5.70;97.42;102730.66;5006161;28;20133;-64
2021/12/20 00:43:27;;;;;;;12.45;3.60;;;;;;;5.71;96.93;102747.88;5022551;28;20050;-64
2021/12/20 00:45:53;;;;;;;11.80;3.05;;;;;;;5.72;97.24;102746.84;5007992;28;20026;-63
2021/12/20 00:48:19;;;;;;;14.70;3.42;;;;;;;5.69;96.15;102734.41;5024696;28;20080;-63
2021/12/20 00:50:45;;;;;;;16.80;3.97;;;;;;;5.72;96.56;102735.94;5026663;28;20022;-63
2021/12/20 00:53:12;;;;;;;18.33;3.10;;;;;;;5.69;95.68;102736.28;5025602;28;20037;-63
2021/12/20 00:55:37;;;;;;;16.27;3.47;;;;;;;5.70;95.41;102740.72;5008426;28;20022;-64
2021/12/20 00:58:03;;;;;;;16.10;3.53;;;;;;;5.70;95.18;102741.56;5025601;28;20025;-63
2021/12/20 01:00:34;;;;;;;11.20;3.22;;;;;;;5.68;95.40;102738.16;5026477;28;20049;-63
2021/12/20 01:03:02;;;;;;;18.85;3.42;;;;;;;5.68;95.33;102738.16;5026476;28;20030;-63
2021/12/20 01:05:27;;;;;;;17.20;3.28;;;;;;;5.69;95.29;102744.44;5021084;28;20057;-63
2021/12/20 01:07:56;;;;;;;17.75;3.15;;;;;;;5.67;94.78;102738.28;5007003;28;20029;-63
2021/12/20 01:10:23;;;;;;;13.77;3.53;;;;;;;5.66;94.02;102745.59;5005678;28;20532;-63
2021/12/20 01:12:50;;;;;;;16.33;3.20;;;;;;;5.66;93.23;102742.88;5012385;28;20576;-63
2021/12/20 01:15:23;;;;;;;14.50;3.25;;;;;;;5.68;93.86;102738.16;5027132;28;20140;-63
2021/12/20 01:17:49;;;;;;;13.70;2.83;;;;;;;5.65;93.32;102738.44;5005923;28;20050;-63
2021/12/20 01:20:16;;;;;;;13.95;3.33;;;;;;;5.64;92.90;102736.72;5006411;28;20440;-63
2021/12/20 01:22:43;;;;;;;19.50;3.30;;;;;;;5.63;93.18;102735.03;5006798;28;20032;-63
2021/12/20 01:25:09;;;;;;;22.33;3.55;;;;;;;5.63;93.80;102736.88;5005424;28;20076;-63
2021/12/20 01:27:34;;;;;;;16.27;3.20;;;;;;;5.61;93.74;102737.03;5006410;28;20033;-63
2021/12/20 01:29:59;;;;;;;22.05;3.78;;;;;;;5.60;93.81;102738.03;5006455;28;20401;-63
2021/12/20 01:32:25;;;;;;;16.52;3.30;;;;;;;5.60;93.33;102738.03;5005866;28;20048;-63
2021/12/20 01:34:50;;;;;;;18.95;3.63;;;;;;;5.58;92.79;102740.06;5011689;28;20033;-64
2021/12/20 01:37:15;;;;;;;19.58;4.43;;;;;;;5.58;93.18;102736.50;5025891;28;20036;-63
2021/12/20 01:39:41;;;;;;;13.60;3.58;;;;;;;5.56;92.52;102738.50;5024570;28;20026;-63
2021/12/20 01:42:07;;;;;;;13.18;3.10;;;;;;;5.55;92.71;102734.06;5024404;28;20036;-63
2021/12/20 01:44:32;;;;;;;16.70;3.63;;;;;;;5.55;92.32;102731.31;5014761;28;20088;-64
2021/12/20 01:47:01;;;;;;;16.52;2.83;;;;;;;5.53;92.46;102734.22;5009821;28;20424;-64
2021/12/20 01:49:26;;;;;;;15.70;3.13;;;;;;;5.52;92.81;102724.28;5007150;28;20018;-64
2021/12/20 01:54:23;;;;;;;17.42;3.25;;;;;;;5.51;91.67;102727.19;5023223;28;20049;-63
2021/12/20 01:56:48;;;;;;;16.88;3.22;;;;;;;5.52;92.10;102724.28;5013890;28;20037;-63
2021/12/20 01:59:13;;;;;;;16.27;3.92;;;;;;;5.52;91.79;102727.03;5005008;28;20064;-64
2021/12/20 02:01:39;;;;;;;15.57;3.00;;;;;;;5.52;92.55;102724.28;5008244;28;20134;-64
2021/12/20 02:04:07;;;;;;;18.70;3.15;;;;;;;5.53;92.40;102723.31;5015577;28;20726;-63
2021/12/20 02:06:38;;;;;;;20.42;3.85;;;;;;;5.50;92.83;102717.28;5006492;28;20087;-63
2021/12/20 02:09:14;;;;;;;13.55;3.00;;;;;;;5.50;92.61;102723.59;5024744;28;20025;-63
2021/12/20 02:11:43;;;;;;;23.15;3.70;;;;;;;5.50;90.34;102723.59;5025049;28;20041;-63
2021/12/20 02:14:09;;;;;;;18.50;3.20;;;;;;;5.53;91.83;102725.19;5013767;28;20393;-64
2021/12/20 02:16:36;;;;;;;19.80;3.80;;;;;;;5.51;91.88;102719.88;5005719;28;20034;-63
2021/12/20 02:19:03;;;;;;;23.23;3.92;;;;;;;5.51;91.86;102719.88;5005479;28;20041;-63
2021/12/20 02:21:29;;;;;;;26.77;3.70;;;;;;;5.51;91.64;102727.19;5005863;28;20042;-64
2021/12/20 02:23:54;;;;;;;20.15;4.30;;;;;;;5.49;91.41;102727.34;5025172;28;20036;-63
2021/12/20 02:26:22;;;;;;;19.40;3.92;;;;;;;5.47;90.90;102718.44;5005014;28;20587;-63
2021/12/20 02:28:50;;;;;;;24.75;4.32;;;;;;;5.47;91.39;102718.44;5003741;28;20034;-63
2021/12/20 02:39:15;;;;;;;24.48;3.90;;;;;;;5.43;88.82;102712.47;5024695;28;20048;-64
2021/12/20 02:41:41;;;;;;;22.05;3.85;;;;;;;5.46;89.95;102714.00;5014161;28;20036;-64
2021/12/20 02:44:11;;;;;;;16.42;3.53;;;;;;;5.46;90.32;102708.56;5009700;28;20478;-64
2021/12/20 02:49:14;;;;;;;21.30;4.70;;;;;;;5.45;90.19;102713.16;5004928;28;20044;-64
2021/12/20 02:51:41;;;;;;;19.90;3.50;;;;;;;5.45;90.78;102715.03;5005023;28;20397;-63
2021/12/20 02:54:08;;;;;;;15.85;4.45;;;;;;;5.43;90.05;102717.91;5004301;28;20030;-64
2021/12/20 02:56:34;;;;;;;19.38;3.53;;;;;;;5.44;91.24;102718.75;5004521;28;20029;-64
2021/12/20 02:58:59;;;;;;;24.70;4.50;;;;;;;5.41;90.60;102710.88;5023364;28;20033;-64
2021/12/20 03:01:25;;;;;;;18.83;3.60;;;;;;;5.42;91.06;102716.19;5023444;28;20053;-64
2021/12/20 03:03:53;;;;;;;19.92;3.22;;;;;;;5.40;90.62;102722.78;5016094;28;20152;-63
2021/12/20 03:06:25;;;;;;;;;;;;;;;5.49;92.00;102716.44;5006204;23;20573;-64
2021/12/20 03:08:53;;;;;;;20.75;4.00;;;;;;;5.40;91.44;102706.44;5004364;28;19914;-63
2021/12/20 03:11:21;;;;;;;16.07;3.43;;;;;;;5.38;91.46;102709.34;5003913;28;20030;-63
2021/12/20 03:13:50;;;;;;;;;;;;;;;5.46;91.92;102706.69;5004421;28;20292;-63
2021/12/20 03:16:16;;;;;;;18.75;3.35;;;;;;;5.38;91.62;102724.81;5003644;28;20016;-63
2021/12/20 03:18:41;;;;;;;18.85;3.95;;;;;;;5.37;91.34;102723.09;5005107;28;20094;-63
2021/12/20 03:21:06;;;;;;;17.05;3.40;;;;;;;5.35;91.28;102712.34;5004298;28;20537;-63
2021/12/20 03:23:31;;;;;;;24.58;5.10;;;;;;;5.35;90.74;102714.22;5021167;28;20038;-63
2021/12/20 03:25:57;;;;;;;19.73;4.07;;;;;;;5.33;90.75;102714.38;5022287;28;20030;-63
2021/12/20 03:28:22;;;;;;;19.10;4.50;;;;;;;5.32;91.44;102706.31;5008393;28;20100;-63
2021/12/20 03:30:47;;;;;;;20.30;4.40;;;;;;;5.29;91.55;102715.69;4994733;28;20050;-64
2021/12/20 03:33:12;;;;;;;19.25;3.72;;;;;;;5.27;91.67;102712.25;4984845;28;20066;-64
2021/12/20 03:35:38;;;;;;;21.35;3.92;;;;;;;5.26;91.42;102712.38;5009521;28;20033;-63
2021/12/20 03:38:03;;;;;;;17.77;3.83;;;;;;;5.27;92.31;102722.25;5022353;28;20562;-63
2021/12/20 03:40:29;;;;;;;22.80;4.03;;;;;;;5.27;91.42;102717.69;4995810;28;20377;-63
2021/12/20 03:42:54;;;;;;;28.75;4.47;;;;;;;5.28;91.27;102713.13;4988202;28;20031;-63
2021/12/20 03:45:20;;;;;;;19.98;3.58;;;;;;;5.28;90.88;102710.38;4994324;28;20026;-63
2021/12/20 03:47:45;;;;;;;26.77;4.32;;;;;;;5.30;90.54;102711.09;5005641;28;20448;-63
2021/12/20 03:50:12;;;;;;;17.77;4.00;;;;;;;5.29;91.10;102710.22;4988594;28;20097;-63
2021/12/20 03:52:38;;;;;;;24.80;4.20;;;;;;;5.30;90.66;102698.31;4998316;28;20791;-63
2021/12/20 03:55:06;;;;;;;21.85;3.65;;;;;;;5.29;90.51;102706.66;5007856;28;20033;-63
2021/12/20 03:57:32;;;;;;;26.75;4.68;;;;;;;5.30;90.85;102705.63;5006451;28;20030;-64
2021/12/20 03:59:57;;;;;;;23.65;4.03;;;;;;;5.29;89.86;102714.81;5008384;28;20040;-63
2021/12/20 04:02:23;;;;;;;18.73;3.58;;;;;;;5.29;89.93;102714.81;5007827;28;20640;-63
2021/12/20 04:04:49;;;;;;;20.33;4.05;;;;;;;5.28;89.63;102716.69;5008038;28;20096;-63
2021/12/20 04:07:14;;;;;;;22.58;3.85;;;;;;;5.29;90.09;102714.81;5015555;28;20097;-64
2021/12/20 04:09:39;;;;;;;22.70;4.35;;;;;;;5.27;89.24;102706.81;4988445;28;20049;-63
2021/12/20 04:12:05;;;;;;;22.70;3.33;;;;;;;5.25;89.67;102705.22;4986754;28;20077;-64
2021/12/20 04:14:30;;;;;;;19.80;3.80;;;;;;;5.24;89.31;102706.25;4994456;28;20057;-64
2021/12/20 04:16:55;;;;;;;22.55;3.33;;;;;;;5.25;87.84;102705.22;5007744;28;20042;-63
2021/12/20 04:19:21;;;;;;;24.23;3.90;;;;;;;5.26;88.99;102705.06;5002524;28;20030;-63
2021/12/20 04:21:46;;;;;;;20.13;3.72;;;;;;;5.24;87.95;102703.53;4992932;28;20034;-64
2021/12/20 04:24:11;;;;;;;19.70;3.53;;;;;;;5.25;87.87;102699.78;5025711;28;20029;-64
2021/12/20 04:26:37;;;;;;;20.10;3.72;;;;;;;5.24;88.09;102706.25;5026574;28;20065;-63
2021/12/20 04:29:02;;;;;;;15.88;3.28;;;;;;;5.22;87.38;102709.13;5006326;28;20026;-63
2021/12/20 04:31:28;;;;;;;23.17;3.22;;;;;;;5.22;87.20;102714.56;5007544;28;20033;-63
2021/12/20 04:33:54;;;;;;;21.13;3.53;;;;;;;5.21;88.14;102713.69;5010964;28;20132;-63
2021/12/20 04:36:19;;;;;;;27.45;4.07;;;;;;;5.20;88.65;102711.97;5026650;28;20053;-63
2021/12/20 04:38:45;;;;;;;19.95;4.13;;;;;;;5.25;85.97;102705.22;4994403;28;20095;-63
2021/12/20 04:41:10;;;;;;;17.58;2.90;;;;;;;5.20;86.85;102701.06;4987385;28;20031;-64
2021/12/20 04:43:36;;;;;;;22.75;3.30;;;;;;;5.17;86.04;102705.97;4987511;28;20030;-64
2021/12/20 04:46:02;;;;;;;20.85;3.10;;;;;;;5.16;87.53;102702.38;4999861;28;20022;-63
2021/12/20 04:48:27;;;;;;;23.67;3.42;;;;;;;5.16;88.65;102699.66;5011182;28;20041;-63
2021/12/20 04:50:53;;;;;;;22.92;3.40;;;;;;;5.15;88.53;102702.53;5008650;28;20041;-63
2021/12/20 04:53:18;;;;;;;20.25;3.17;;;;;;;5.14;88.68;102707.13;5025316;28;20476;-63
2021/12/20 04:55:43;;;;;;;24.75;4.43;;;;;;;5.13;88.31;102702.69;5026473;28;20033;-63
2021/12/20 04:58:09;;;;;;;19.20;3.00;;;;;;;5.13;89.65;102704.56;5009936;28;20671;-63
2021/12/20 05:00:36;;;;;;;21.02;3.20;;;;;;;5.10;89.12;102711.16;5007217;28;20098;-63
2021/12/20 05:03:02;;;;;;;17.73;3.90;;;;;;;5.08;89.52;102706.88;5007112;28;20128;-63
2021/12/20 05:05:30;;;;;;;23.52;3.30;;;;;;;5.07;89.65;102705.13;5016522;28;20160;-63
2021/12/20 05:07:56;;;;;;;22.02;3.72;;;;;;;5.05;89.31;102708.03;5010577;28;20025;-63
2021/12/20 05:10:27;;;;;;;20.90;3.40;;;;;;;5.04;89.31;102709.03;5005911;28;20042;-63
2021/12/20 05:12:54;;;;;;;22.65;4.00;;;;;;;5.04;89.43;102717.19;5019867;28;20099;-62
2021/12/20 05:15:20;;;;;;;17.67;3.80;;;;;;;5.02;89.16;102700.16;5026323;28;20091;-63
2021/12/20 05:17:45;;;;;;;20.58;3.22;;;;;;;5.01;88.83;102709.31;5005008;28;20384;-63
2021/12/20 05:20:11;;;;;;;19.80;3.80;;;;;;;5.01;88.23;102716.63;5013509;28;20116;-63
2021/12/20 05:22:36;;;;;;;21.27;3.75;;;;;;;5.01;89.39;102716.63;5016682;28;20030;-63
2021/12/20 05:25:02;;;;;;;14.80;3.92;;;;;;;4.99;90.07;102722.22;5004861;28;20029;-63
2021/12/20 05:27:28;;;;;;;17.58;3.55;;;;;;;4.97;88.86;102718.81;5002432;28;20017;-63
2021/12/20 05:29:54;;;;;;;17.17;4.47;;;;;;;4.97;89.20;102716.09;5006431;28;20030;-63
2021/12/20 05:32:19;;;;;;;19.17;3.42;;;;;;;4.99;90.29;102716.78;5005973;28;20033;-63
2021/12/20 05:34:45;;;;;;;19.10;3.33;;;;;;;5.00;90.58;102723.94;5006440;28;20026;-63
2021/12/20 05:37:11;;;;;;;19.70;3.33;;;;;;;5.00;89.75;102731.25;5004615;28;20029;-63
2021/12/20 05:39:36;;;;;;;19.35;3.30;;;;;;;5.01;89.04;102728.38;5009215;28;20025;-63
2021/12/20 05:42:02;;;;;;;21.27;3.85;;;;;;;5.02;87.35;102726.50;5005204;28;20487;-63
2021/12/20 05:44:27;;;;;;;19.60;3.35;;;;;;;5.05;87.36;102723.50;5005617;28;20140;-63
2021/12/20 05:46:52;;;;;;;19.02;3.58;;;;;;;5.04;86.53;102730.81;5001434;28;20073;-63
2021/12/20 05:49:18;;;;;;;15.80;3.25;;;;;;;5.07;86.51;102719.66;4993817;28;20025;-63
2021/12/20 05:51:44;;;;;;;25.88;3.53;;;;;;;5.08;86.26;102721.34;5005744;28;20050;-63
2021/12/20 05:54:09;;;;;;;20.90;3.75;;;;;;;5.07;87.60;102710.59;5008314;28;20030;-65
2021/12/20 05:56:34;;;;;;;20.65;4.05;;;;;;;5.07;85.15;102727.81;5021346;28;20017;-65
2021/12/20 05:59:00;;;;;;;19.77;3.25;;;;;;;5.09;85.70;102728.50;5022733;28;20732;-65
2021/12/20 06:01:25;;;;;;;20.90;4.20;;;;;;;5.10;85.09;102721.19;5024346;28;20029;-65
2021/12/20 06:03:50;;;;;;;20.02;3.88;;;;;;;5.11;85.74;102715.59;5003977;28;20042;-65
2021/12/20 06:06:15;;;;;;;22.42;3.75;;;;;;;5.11;84.69;102717.47;5003993;28;20042;-65
2021/12/20 06:08:41;;;;;;;24.25;4.47;;;;;;;5.10;85.33;102727.50;5004215;28;20476;-65
2021/12/20 06:11:06;;;;;;;22.35;3.70;;;;;;;5.10;84.91;102715.75;5003276;28;20126;-65
2021/12/20 06:13:32;;;;;;;27.27;3.83;;;;;;;5.10;86.09;102719.31;5003672;28;20428;-65
2021/12/20 06:15:57;;;;;;;21.20;4.20;;;;;;;5.07;85.98;102725.09;5005177;28;20110;-65
2021/12/20 06:18:22;;;;;;;15.60;3.72;;;;;;;5.06;85.57;102720.63;5001134;28;20053;-64
2021/12/20 06:20:48;;;;;;;19.27;3.42;;;;;;;5.04;85.46;102730.81;4990956;28;20121;-65
2021/12/20 06:23:14;;;;;;;21.00;4.53;;;;;;;5.04;83.47;102728.09;5008838;28;20034;-65
2021/12/20 06:25:39;;;;;;;21.30;4.13;;;;;;;5.18;81.82;102730.34;4992073;28;20116;-65
2021/12/20 06:28:05;;;;;;;18.05;3.58;;;;;;;5.14;83.59;102733.50;5024286;28;20097;-65
2021/12/20 06:30:30;;;;;;;23.52;3.53;;;;;;;5.09;85.75;102739.41;5011642;28;20029;-65
2021/12/20 06:32:56;;;;;;;21.83;3.78;;;;;;;5.05;86.16;102737.97;5005042;28;20534;-64
2021/12/20 06:35:21;;;;;;;26.98;3.90;;;;;;;5.01;86.69;102735.69;5012886;28;20573;-65
2021/12/20 06:37:59;;;;;;;23.35;4.10;;;;;;;5.00;85.92;102742.16;4985822;28;20026;-65
2021/12/20 06:40:25;;;;;;;16.83;3.22;;;;;;;4.99;85.85;102748.63;4989438;28;20431;-64
2021/12/20 06:42:50;;;;;;;19.88;3.95;;;;;;;4.97;85.78;102742.44;5005624;28;20049;-65
2021/12/20 06:45:16;;;;;;;20.60;3.78;;;;;;;4.96;86.71;102749.75;4989268;28;20596;-65
2021/12/20 06:47:41;;;;;;;18.75;3.55;;;;;;;4.94;86.24;102736.28;5023332;28;20051;-65
2021/12/20 06:50:07;;;;;;;20.00;3.33;;;;;;;4.94;86.54;102746.31;5007743;28;20520;-65
2021/12/20 06:52:32;;;;;;;16.48;3.78;;;;;;;4.93;86.58;102755.50;5008736;28;20048;-63
2021/12/20 06:54:57;;;;;;;19.33;4.63;;;;;;;4.91;86.51;102755.63;5007085;28;20030;-62
2021/12/20 06:57:23;;;;;;;16.85;3.60;;;;;;;4.89;87.08;102754.06;4996944;28;20606;-63
2021/12/20 06:59:48;;;;;;;18.30;4.30;;;;;;;4.87;88.00;102753.38;5003362;28;20022;-63
2021/12/20 07:02:14;;;;;;;16.48;4.47;;;;;;;4.85;87.74;102758.09;5004136;28;20421;-63
2021/12/20 07:04:39;;;;;;;18.13;3.83;;;;;;;4.82;87.97;102767.44;4994172;28;20030;-63
2021/12/20 07:07:05;;;;;;;24.77;4.93;;;;;;;4.82;88.43;102761.97;4988799;28;20022;-63
2021/12/20 07:09:30;;;;;;;16.48;3.80;;;;;;;4.85;88.72;102766.25;5023018;28;20127;-63
2021/12/20 07:11:55;;;;;;;23.45;4.75;;;;;;;4.85;88.65;102766.25;5022491;28;20466;-62
2021/12/20 07:14:26;;;;;;;21.63;3.80;;;;;;;4.79;89.41;102767.72;5008531;28;20056;-63
2021/12/20 07:16:51;;;;;;;24.20;3.90;;;;;;;4.80;88.94;102760.41;5012947;28;20026;-63
2021/12/20 07:19:16;;;;;;;21.30;4.63;;;;;;;4.80;88.43;102758.53;5004850;28;20049;-63
2021/12/20 07:21:42;;;;;;;23.15;4.43;;;;;;;4.80;89.22;102755.81;5003728;28;20034;-63
2021/12/20 07:24:07;;;;;;;19.25;4.40;;;;;;;4.82;89.14;102763.84;5003301;28;20465;-63
2021/12/20 07:26:32;;;;;;;20.55;4.93;;;;;;;4.82;88.67;102772.00;5003518;28;20034;-63
2021/12/20 07:28:58;;;;;;;20.75;4.72;;;;;;;4.82;89.39;102772.88;5003969;28;20030;-63
2021/12/20 07:31:23;;;;;;;19.10;4.53;;;;;;;4.83;90.14;102771.00;4996021;28;20473;-63
2021/12/20 07:33:48;;;;;;;25.88;4.47;;;;;;;4.83;88.77;102765.56;4984291;28;20443;-63
2021/12/20 07:36:15;;;;;;;22.00;4.32;;;;;;;4.81;89.50;102760.25;4985051;28;20057;-63
2021/12/20 07:38:41;;;;;;;21.45;4.00;;;;;;;4.83;89.16;102773.72;5006251;28;20026;-63
2021/12/20 07:41:07;;;;;;;17.60;3.40;;;;;;;4.81;89.05;102765.69;5002885;28;20404;-63
2021/12/20 07:43:32;;;;;;;19.88;3.65;;;;;;;4.84;89.86;102764.56;5002324;28;20396;-63
2021/12/20 07:45:57;;;;;;;17.42;4.50;;;;;;;4.82;88.50;102761.97;5002874;28;20065;-63
2021/12/20 07:48:23;;;;;;;17.27;3.60;;;;;;;4.84;89.96;102764.56;5001557;28;20072;-63
2021/12/20 07:50:49;;;;;;;21.90;3.80;;;;;;;4.81;89.23;102768.41;4997124;28;20018;-63
2021/12/20 07:53:15;;;;;;;17.85;3.53;;;;;;;4.80;89.41;102769.41;4984026;28;20350;-63
2021/12/20 07:55:41;;;;;;;21.73;4.65;;;;;;;4.81;89.66;102775.72;4983461;28;20048;-63
2021/12/20 07:58:07;;;;;;;17.48;3.33;;;;;;;4.80;88.85;102772.13;4983188;28;20489;-63
2021/12/20 08:00:33;;;;;;;17.02;3.90;;;;;;;4.83;89.57;102768.28;4999962;28;20033;-63
2021/12/20 08:02:58;;;;;;;20.92;3.50;;;;;;;4.82;89.60;102766.56;5017194;28;20025;-63
2021/12/20 08:05:25;;;;;;;15.45;3.97;;;;;;;4.81;90.32;102773.00;5022630;28;20037;-63
2021/12/20 08:07:52;;;;;;;25.38;4.63;;;;;;;4.82;90.36;102774.75;5002954;28;20454;-63
2021/12/20 08:10:19;;;;;;;20.58;3.83;;;;;;;4.84;89.25;102778.16;5004519;28;20033;-63
2021/12/20 08:12:45;;;;;;;22.10;4.70;;;;;;;4.85;89.66;102774.44;5012950;28;20053;-63
2021/12/20 08:15:11;;;;;;;16.42;3.75;;;;;;;4.88;90.28;102785.03;5011708;28;20071;-63
2021/12/20 08:17:37;;;;;;;16.23;3.70;;;;;;;4.88;90.62;102779.59;4994774;28;20431;-63
2021/12/20 08:20:04;;;;;;;23.73;4.53;;;;;;;4.90;89.95;102775.69;4993427;28;20026;-64
2021/12/20 08:22:29;;;;;;;23.23;3.50;;;;;;;4.92;89.19;102784.59;4992294;28;20029;-64
2021/12/20 08:24:54;;;;;;;24.08;4.88;;;;;;;4.94;88.73;102789.88;4998465;28;20151;-64
2021/12/20 08:27:20;;;;;;;19.25;4.10;;;;;;;4.97;89.83;102792.34;4994337;28;20027;-65
2021/12/20 08:29:45;;;;;;;19.15;4.43;;;;;;;4.97;89.77;102780.56;4990800;28;20036;-65
2021/12/20 08:32:11;;;;;;;19.33;3.97;;;;;;;4.99;89.76;102787.59;5004047;28;20041;-65
2021/12/20 08:34:36;;;;;;;20.45;4.80;;;;;;;5.01;88.85;102784.72;4998238;28;20034;-66
2021/12/20 08:37:02;;;;;;;20.00;4.20;;;;;;;5.05;88.83;102787.00;4999162;28;20168;-66
2021/12/20 08:39:31;;;;;;;19.25;4.15;;;;;;;5.09;88.03;102791.16;4998719;28;20480;-66
2021/12/20 08:41:58;;;;;;;14.73;3.10;;;;;;;5.15;83.66;102784.25;5001985;28;20026;-64
2021/12/20 08:44:24;;;;;;;22.92;4.72;;;;;;;5.17;85.12;102784.94;5002507;28;20079;-63
2021/12/20 08:46:52;;;;;;;20.58;4.10;;;;;;;5.16;84.58;102789.53;4994325;28;20052;-63
2021/12/20 08:49:17;;;;;;;21.08;4.90;;;;;;;5.20;86.03;102798.28;5000854;28;20025;-63
2021/12/20 08:51:45;;;;;;;19.77;5.68;;;;;;;5.20;85.37;102799.16;4992971;28;20038;-63
2021/12/20 08:54:10;;;;;;;25.25;5.25;;;;;;;5.23;86.87;102799.88;5012330;28;20017;-63
2021/12/20 08:56:35;;;;;;;18.02;4.05;;;;;;;5.32;83.10;102785.34;5001190;28;20391;-63
2021/12/20 08:59:00;;;;;;;18.77;4.43;;;;;;;5.28;83.45;102789.38;5003081;28;20021;-63
2021/12/20 09:01:26;;;;;;;20.35;4.72;;;;;;;5.43;81.99;102794.22;5005031;28;20041;-63
2021/12/20 09:03:51;;;;;;;22.30;4.40;;;;;;;5.42;82.20;102800.66;5003973;28;20477;-63
2021/12/20 09:06:17;;;;;;;21.17;4.22;;;;;;;5.34;84.39;102795.09;5003829;28;20034;-63
2021/12/20 09:08:42;;;;;;;23.23;4.43;;;;;;;5.38;84.31;102801.13;5004073;28;20039;-63
2021/12/20 09:11:08;;;;;;;22.48;4.43;;;;;;;5.43;85.35;102798.81;5003066;28;20029;-63
2021/12/20 09:13:34;;;;;;;28.15;5.28;;;;;;;5.46;85.06;102793.03;5002041;28;20156;-63
2021/12/20 09:16:00;;;;;;;18.48;4.65;;;;;;;5.50;84.90;102797.19;4997222;28;20472;-63
2021/12/20 09:18:29;;;;;;;28.05;4.70;;;;;;;5.51;83.80;102798.91;5000277;28;20099;-63
2021/12/20 09:20:56;;;;;;;26.50;6.28;;;;;;;5.50;84.00;102808.09;5004286;28;20083;-63
2021/12/20 09:23:22;;;;;;;22.98;6.10;;;;;;;5.51;84.08;102804.34;5005373;28;20036;-63
2021/12/20 09:25:48;;;;;;;21.05;4.40;;;;;;;5.63;81.08;102800.44;4998902;28;20393;-64
2021/12/20 09:28:15;;;;;;;18.17;4.90;;;;;;;5.59;82.88;102801.75;5005947;28;20037;-63
2021/12/20 09:30:43;;;;;;;16.30;5.22;;;;;;;5.61;84.18;102805.16;5004607;28;20026;-64
2021/12/20 09:33:09;;;;;;;;;;;;;;;5.71;85.23;102811.44;4997184;28;20539;-64
2021/12/20 09:35:35;;;;;;;22.88;4.88;;;;;;;5.75;82.61;102806.53;5006209;28;19921;-64
2021/12/20 09:38:01;;;;;;;18.30;4.22;;;;;;;5.75;82.13;102802.97;5005503;28;20048;-64
2021/12/20 09:40:37;;;;;;;18.02;3.83;;;;;;;5.77;82.23;102812.69;5001072;28;20026;-64
2021/12/20 09:43:09;;;;;;;18.30;5.30;;;;;;;5.80;82.79;102814.28;5004516;28;20046;-64
2021/12/20 09:45:35;;;;;;;23.58;6.07;;;;;;;5.83;82.88;102811.22;5002481;28;20052;-64
2021/12/20 09:48:00;;;;;;;23.92;4.60;;;;;;;5.86;82.78;102813.66;5005086;28;20445;-64
2021/12/20 09:50:26;;;;;;;25.60;5.45;;;;;;;5.88;83.44;102819.81;4998290;28;20476;-64
2021/12/20 09:52:52;;;;;;;23.42;5.32;;;;;;;5.89;83.78;102821.56;5003120;28;20030;-64
2021/12/20 09:55:19;;;;;;;35.40;6.63;;;;;;;5.93;84.12;102820.25;4995746;28;20030;-64
2021/12/20 09:57:48;;;;;;;16.40;5.07;;;;;;;5.92;82.55;102826.72;5004015;28;20462;-64
2021/12/20 10:00:17;;;;;;;20.70;4.40;;;;;;;5.89;82.59;102821.56;5003260;28;20872;-64
2021/12/20 10:02:43;;;;;;;21.75;5.22;;;;;;;5.91;83.99;102819.53;5000115;28;20059;-64
2021/12/20 10:05:11;;;;;;;21.45;3.97;;;;;;;6.00;80.45;102828.69;5013067;28;20042;-64
2021/12/20 10:07:36;;;;;;;20.40;5.28;;;;;;;5.94;82.78;102820.13;5001621;28;20065;-64
2021/12/20 10:10:05;;;;;;;20.65;4.82;;;;;;;5.96;81.85;102822.69;4997636;28;20073;-64
2021/12/20 10:12:32;;;;;;;19.75;4.63;;;;;;;5.99;82.67;102827.84;5002970;28;20140;-64
2021/12/20 10:15:05;;;;;;;17.70;4.28;;;;;;;6.01;83.23;102825.81;5000827;28;20052;-64
2021/12/20 10:17:50;;;;;;;20.13;4.32;;;;;;;6.02;82.23;102822.06;4998273;28;20034;-64
2021/12/20 10:20:19;;;;;;;19.02;5.40;;;;;;;6.06;82.96;102823.50;4994758;28;20436;-64
2021/12/20 10:22:44;;;;;;;21.85;5.00;;;;;;;6.09;82.54;102820.47;4999151;28;20117;-64
2021/12/20 10:25:23;;;;;;;18.27;4.13;;;;;;;6.13;83.34;102830.06;5000210;28;20384;-64
2021/12/20 10:27:49;;;;;;;22.25;5.88;;;;;;;6.23;81.18;102824.53;4994720;28;20041;-63
2021/12/20 10:30:26;;;;;;;19.63;4.80;;;;;;;6.16;83.59;102823.44;5006313;28;21022;-64
2021/12/20 10:32:51;;;;;;;20.98;4.75;;;;;;;6.17;83.11;102823.28;5000479;28;20584;-64
2021/12/20 10:35:26;;;;;;;24.88;4.80;;;;;;;6.25;82.03;102819.78;4996383;28;20068;-64
2021/12/20 10:37:53;;;;;;;15.35;3.72;;;;;;;6.24;82.59;102821.66;4997258;28;20226;-64
2021/12/20 10:40:18;;;;;;;16.88;3.92;;;;;;;6.41;79.09;102817.22;4998003;28;20026;-64
2021/12/20 10:42:44;;;;;;;20.15;4.18;;;;;;;6.28;82.16;102822.19;4995760;28;20033;-64
2021/12/20 10:45:14;;;;;;;19.67;4.35;;;;;;;6.31;81.60;102821.91;5002700;28;20026;-64
2021/12/20 10:47:43;;;;;;;19.75;3.90;;;;;;;6.31;80.59;102816.44;4993570;28;20488;-64
2021/12/20 10:50:26;;;;;;;16.27;4.70;;;;;;;6.35;80.70;102827.91;4998873;28;20025;-64
2021/12/20 10:52:53;;;;;;;21.73;4.50;;;;;;;6.30;82.55;102817.47;4985541;28;20094;-64
2021/12/20 10:55:41;;;;;;;16.75;4.28;;;;;;;6.35;81.46;102823.31;4988916;28;20027;-64
2021/12/20 10:58:20;;;;;;;18.63;4.82;;;;;;;6.36;81.65;102822.28;4991968;28;20436;-64
2021/12/20 11:01:02;;;;;;;21.95;4.82;;;;;;;6.39;82.46;102812.94;4998149;28;20124;-64
2021/12/20 11:03:35;;;;;;;14.80;4.75;;;;;;;6.40;82.80;102815.50;4992221;28;20030;-64
2021/12/20 11:09:05;;;;;;;21.67;4.32;;;;;;;6.43;79.85;102817.06;4991715;28;20033;-64
2021/12/20 11:11:35;;;;;;;16.50;4.43;;;;;;;6.46;80.20;102809.44;4988851;28;20026;-64
2021/12/20 11:14:02;;;;;;;19.90;4.10;;;;;;;6.57;79.94;102812.94;5002392;28;20018;-63
2021/12/20 11:16:33;;;;;;;18.90;4.20;;;;;;;6.74;76.69;102810.22;5001873;28;20069;-64
2021/12/20 11:19:07;;;;;;;21.25;4.45;;;;;;;7.00;74.10;102798.47;4996614;28;20124;-64
2021/12/20 11:21:37;;;;;;;17.83;4.18;;;;;;;6.92;73.76;102809.31;5004592;28;20061;-64
2021/12/20 11:24:10;;;;;;;20.38;3.40;;;;;;;7.02;75.55;102810.09;5004954;28;20036;-64
2021/12/20 11:26:35;;;;;;;18.27;4.75;;;;;;;7.63;74.20;102798.16;5003562;28;20026;-64
2021/12/20 11:29:01;;;;;;;19.40;4.05;;;;;;;7.77;74.25;102797.53;4996442;28;20129;-64
2021/12/20 11:31:26;;;;;;;20.48;3.17;;;;;;;8.30;69.52;102788.13;5001041;28;20765;-64
2021/12/20 11:33:52;;;;;;;23.92;4.70;;;;;;;9.02;70.74;102795.72;5003174;28;20037;-64
2021/12/20 11:36:18;;;;;;;16.75;4.38;;;;;;;9.87;63.50;102782.28;4994079;28;20557;-64
2021/12/20 11:38:43;;;;;;;18.65;3.92;;;;;;;10.45;64.33;102789.22;4999187;28;20551;-64
2021/12/20 11:41:08;;;;;;;18.30;3.67;;;;;;;11.44;63.22;102779.00;4998082;28;20037;-64
2021/12/20 11:43:34;;;;;;;19.52;4.22;;;;;;;12.24;59.21;102786.44;5004230;28;20117;-63